createdAt,value
2023-10-19T00:02:16.765Z,7.10
2023-10-19T00:04:47.591Z,7.95
2023-10-19T00:07:17.408Z,7.80
2023-10-19T00:09:49.185Z,7.15
2023-10-19T00:12:17.711Z,7.18
2023-10-19T00:14:47.949Z,7.40
2023-10-19T00:17:16.183Z,6.65
2023-10-19T00:19:59.096Z,6.88
2023-10-19T00:22:27.357Z,7.30
2023-10-19T00:24:55.550Z,7.30
2023-10-19T00:27:24.803Z,7.93
2023-10-19T00:29:56.761Z,7.00
2023-10-19T00:32:26.424Z,5.90
2023-10-19T00:37:27.627Z,5.70
2023-10-19T00:39:57.395Z,5.88
2023-10-19T00:42:31.447Z,5.78
2023-10-19T00:45:05.992Z,5.57
2023-10-19T00:47:41.446Z,7.30
2023-10-19T00:50:20.978Z,6.25
2023-10-19T00:52:51.380Z,5.88
2023-10-19T00:55:22.799Z,5.53
2023-10-19T00:57:55.649Z,5.68
2023-10-19T01:00:35.600Z,5.65
2023-10-19T01:03:06.564Z,5.93
2023-10-19T01:05:38.193Z,5.53
2023-10-19T01:08:16.252Z,5.65
2023-10-19T01:10:46.878Z,5.88
2023-10-19T01:13:17.857Z,6.30
2023-10-19T01:15:50.786Z,5.30
2023-10-19T01:18:19.556Z,5.70
2023-10-19T01:20:52.939Z,5.37
2023-10-19T01:23:27.346Z,5.60
2023-10-19T01:26:08.649Z,4.75
2023-10-19T01:28:45.180Z,4.90
2023-10-19T01:31:19.032Z,5.88
2023-10-19T01:33:47.643Z,5.68
2023-10-19T01:36:28.546Z,5.18
2023-10-19T01:39:02.576Z,4.95
2023-10-19T01:41:32.375Z,5.13
2023-10-19T01:44:05.710Z,5.00
2023-10-19T01:46:35.253Z,4.95
2023-10-19T01:49:05.325Z,4.80
2023-10-19T01:51:34.697Z,5.18
2023-10-19T01:54:05.833Z,4.90
2023-10-19T01:56:35.294Z,5.22
2023-10-19T01:59:05.211Z,5.57
2023-10-19T02:01:34.248Z,4.90
2023-10-19T02:04:06.961Z,4.82
2023-10-19T02:06:37.939Z,5.05
2023-10-19T02:09:18.652Z,5.30
2023-10-19T02:11:48.775Z,4.25
2023-10-19T02:14:17.649Z,4.43
2023-10-19T02:16:48.269Z,5.20
2023-10-19T02:19:16.229Z,4.80
2023-10-19T02:21:44.598Z,4.47
2023-10-19T02:26:45.496Z,5.05
2023-10-19T02:29:13.814Z,4.35
2023-10-19T02:31:43.160Z,5.35
2023-10-19T02:34:12.466Z,5.63
2023-10-19T02:36:41.750Z,4.25
2023-10-19T02:39:11.132Z,5.78
2023-10-19T02:41:42.490Z,5.75
2023-10-19T02:44:23.569Z,6.20
2023-10-19T02:46:55.252Z,6.78
2023-10-19T02:49:23.929Z,5.88
2023-10-19T02:51:54.472Z,5.13
2023-10-19T02:54:24.446Z,5.10
2023-10-19T02:56:55.356Z,4.93
2023-10-19T02:59:24.705Z,5.38
2023-10-19T03:02:02.138Z,5.68
2023-10-19T03:04:31.099Z,4.80
2023-10-19T03:06:59.967Z,4.65
2023-10-19T03:09:31.130Z,4.68
2023-10-19T03:12:04.837Z,5.07
2023-10-19T03:14:33.576Z,4.95
2023-10-19T03:17:04.060Z,5.00
2023-10-19T03:19:31.622Z,4.82
2023-10-19T03:22:01.684Z,4.32
2023-10-19T03:24:38.264Z,4.82
2023-10-19T03:27:14.464Z,4.63
2023-10-19T03:29:47.569Z,5.90
2023-10-19T03:32:17.491Z,4.43
2023-10-19T03:34:49.420Z,4.97
2023-10-19T03:37:21.004Z,4.68
2023-10-19T03:39:52.685Z,4.93
2023-10-19T03:42:23.331Z,4.50
2023-10-19T03:44:54.993Z,5.45
2023-10-19T03:47:27.413Z,5.47
2023-10-19T03:49:56.135Z,5.63
2023-10-19T03:52:24.767Z,5.90
2023-10-19T03:54:54.478Z,6.38
2023-10-19T03:57:26.356Z,6.88
2023-10-19T03:59:58.161Z,6.40
2023-10-19T04:02:30.364Z,7.25
2023-10-19T04:04:59.633Z,7.60
2023-10-19T04:07:28.638Z,6.35
2023-10-19T04:10:11.066Z,6.75
2023-10-19T04:12:43.719Z,6.03
2023-10-19T04:15:15.967Z,6.53
2023-10-19T04:17:45.727Z,7.28
2023-10-19T04:20:30.455Z,7.60
2023-10-19T04:23:00.142Z,8.30
2023-10-19T04:25:30.834Z,8.32
2023-10-19T04:28:02.242Z,7.40
2023-10-19T04:30:34.361Z,8.88
2023-10-19T04:33:03.119Z,8.60
2023-10-19T04:35:33.548Z,8.77
2023-10-19T04:38:02.755Z,7.93
2023-10-19T04:40:31.562Z,6.80
2023-10-19T04:43:01.269Z,9.27
2023-10-19T04:45:31.045Z,8.05
2023-10-19T04:47:59.661Z,8.43
2023-10-19T04:50:28.163Z,8.35
2023-10-19T04:52:56.594Z,9.48
2023-10-19T04:55:25.767Z,7.72
2023-10-19T04:57:54.046Z,7.22
2023-10-19T05:00:25.917Z,8.33
2023-10-19T05:02:54.469Z,8.95
2023-10-19T05:05:23.132Z,8.23
2023-10-19T05:07:53.406Z,7.43
2023-10-19T05:10:22.026Z,8.75
2023-10-19T05:12:50.314Z,8.45
2023-10-19T05:15:19.778Z,10.10
2023-10-19T05:17:49.625Z,8.27
2023-10-19T05:20:18.320Z,8.02
2023-10-19T05:22:46.578Z,9.10
2023-10-19T05:25:15.266Z,9.10
2023-10-19T05:27:47.031Z,10.63
2023-10-19T05:30:16.302Z,10.40
2023-10-19T05:32:44.994Z,9.30
2023-10-19T05:35:23.950Z,11.70
2023-10-19T05:37:52.296Z,12.30
2023-10-19T05:40:21.193Z,13.07
2023-10-19T05:42:49.477Z,11.83
2023-10-19T05:45:18.796Z,12.10
2023-10-19T05:47:47.201Z,11.23
2023-10-19T05:50:17.301Z,11.70
2023-10-19T05:52:46.178Z,9.98
2023-10-19T05:55:14.807Z,10.48
2023-10-19T05:57:43.508Z,9.68
2023-10-19T06:00:15.245Z,8.75
2023-10-19T06:02:48.145Z,7.95
2023-10-19T06:05:18.866Z,7.43
2023-10-19T06:07:48.290Z,7.40
2023-10-19T06:10:18.802Z,7.43
2023-10-19T06:12:47.694Z,7.20
2023-10-19T06:15:17.339Z,6.47
2023-10-19T06:17:47.323Z,6.75
2023-10-19T06:20:27.737Z,5.07
2023-10-19T06:22:58.310Z,3.85
2023-10-19T06:25:27.213Z,3.10
2023-10-19T06:27:58.808Z,2.80
2023-10-19T06:30:28.942Z,2.60
2023-10-19T06:33:02.211Z,2.67
2023-10-19T06:35:34.056Z,2.58
2023-10-19T06:38:04.949Z,2.05
2023-10-19T06:40:37.473Z,2.72
2023-10-19T06:43:06.868Z,2.38
2023-10-19T06:45:35.998Z,2.50
2023-10-19T06:48:05.349Z,2.35
2023-10-19T06:50:37.363Z,2.55
2023-10-19T06:53:07.139Z,2.25
2023-10-19T06:55:36.223Z,2.30
2023-10-19T06:58:05.908Z,2.00
2023-10-19T07:00:35.582Z,2.08
2023-10-19T07:05:33.359Z,1.80
2023-10-19T07:08:03.859Z,2.10
2023-10-19T07:10:33.501Z,2.00
2023-10-19T07:13:01.794Z,2.13
2023-10-19T07:15:31.495Z,2.15
2023-10-19T07:20:30.145Z,1.90
2023-10-19T07:25:32.638Z,2.25
2023-10-19T07:28:01.655Z,1.80
2023-10-19T07:30:31.954Z,2.00
2023-10-19T07:33:00.813Z,1.55
2023-10-19T07:38:05.211Z,1.58
2023-10-19T07:40:35.405Z,1.60
2023-10-19T07:43:05.079Z,1.27
2023-10-19T07:45:35.838Z,1.40
2023-10-19T07:48:08.591Z,1.30
2023-10-19T07:50:41.952Z,1.42
2023-10-19T07:53:12.203Z,1.33
2023-10-19T07:55:45.391Z,1.10
2023-10-19T07:58:14.020Z,1.13
2023-10-19T08:00:43.636Z,0.90
2023-10-19T08:03:15.020Z,0.82
2023-10-19T08:05:44.701Z,0.80
2023-10-19T08:08:14.167Z,1.20
2023-10-19T08:10:44.307Z,1.30
2023-10-19T08:13:14.038Z,1.00
2023-10-19T08:15:42.688Z,1.20
2023-10-19T08:18:13.888Z,1.10
2023-10-19T08:20:45.531Z,0.95
2023-10-19T08:23:17.868Z,1.02
2023-10-19T08:25:56.363Z,0.98
2023-10-19T08:28:25.751Z,1.02
2023-10-19T08:31:02.108Z,0.65
2023-10-19T08:33:35.246Z,0.98
2023-10-19T08:36:07.661Z,0.98
2023-10-19T08:38:36.201Z,0.93
2023-10-19T08:41:06.312Z,1.23
2023-10-19T08:43:35.261Z,1.00
2023-10-19T08:46:05.025Z,1.67
2023-10-19T08:48:38.038Z,1.52
2023-10-19T08:51:12.189Z,1.00
2023-10-19T08:53:45.778Z,1.40
2023-10-19T08:56:17.687Z,1.50
2023-10-19T08:58:47.334Z,1.15
2023-10-19T09:01:16.667Z,1.33
2023-10-19T09:03:45.314Z,1.15
2023-10-19T09:06:16.040Z,1.10
2023-10-19T09:08:48.177Z,1.40
2023-10-19T09:11:21.126Z,1.33
2023-10-19T09:13:51.317Z,1.45
2023-10-19T09:16:23.202Z,1.40
2023-10-19T09:18:52.821Z,1.55
2023-10-19T09:21:26.316Z,1.38
2023-10-19T09:23:56.126Z,1.10
2023-10-19T09:26:27.054Z,1.15
2023-10-19T09:28:56.403Z,0.98
2023-10-19T09:31:26.201Z,1.45
2023-10-19T09:33:56.726Z,1.08
2023-10-19T09:36:28.697Z,1.30
2023-10-19T09:38:59.549Z,1.40
2023-10-19T09:41:31.566Z,1.40
2023-10-19T09:44:06.236Z,1.58
2023-10-19T09:46:38.409Z,1.30
2023-10-19T09:49:08.124Z,1.40
2023-10-19T09:51:37.413Z,1.35
2023-10-19T09:54:14.167Z,1.20
2023-10-19T09:56:55.016Z,0.98
2023-10-19T09:59:31.907Z,1.00
2023-10-19T10:02:14.195Z,0.70
2023-10-19T10:04:47.016Z,1.42
2023-10-19T10:07:25.473Z,1.30
2023-10-19T10:10:06.249Z,0.90
2023-10-19T10:12:38.608Z,0.85
2023-10-19T10:15:09.485Z,0.98
2023-10-19T10:17:40.821Z,0.85
2023-10-19T10:20:32.394Z,1.05
2023-10-19T10:23:22.838Z,0.90
2023-10-19T10:25:55.164Z,1.15
2023-10-19T10:28:25.878Z,1.27
2023-10-19T10:31:22.555Z,0.88
2023-10-19T10:33:52.826Z,0.70
2023-10-19T10:36:22.060Z,0.63
2023-10-19T10:38:52.772Z,0.75
2023-10-19T10:41:26.362Z,0.77
2023-10-19T10:43:58.158Z,1.08
2023-10-19T10:46:28.444Z,2.40
2023-10-19T10:48:57.460Z,1.40
2023-10-19T10:51:27.182Z,1.40
2023-10-19T10:53:56.667Z,2.47
2023-10-19T10:56:26.491Z,1.70
2023-10-19T10:58:57.103Z,2.30
2023-10-19T11:01:32.193Z,2.15
2023-10-19T11:04:11.711Z,2.80
2023-10-19T11:09:21.147Z,2.50
2023-10-19T11:11:50.541Z,2.22
2023-10-19T11:14:20.684Z,2.50
2023-10-19T11:16:49.114Z,1.60
2023-10-19T11:19:17.827Z,1.98
2023-10-19T11:21:59.217Z,1.70
2023-10-19T11:24:33.565Z,1.60
2023-10-19T11:27:02.011Z,1.83
2023-10-19T11:29:32.065Z,1.83
2023-10-19T11:32:01.392Z,1.85
2023-10-19T11:34:31.627Z,1.60
2023-10-19T11:37:01.603Z,1.60
2023-10-19T11:39:31.190Z,1.90
2023-10-19T11:41:59.729Z,1.55
2023-10-19T11:44:28.663Z,1.65
2023-10-19T11:46:58.715Z,1.70
2023-10-19T11:49:27.459Z,1.40
2023-10-19T11:51:56.052Z,1.27
2023-10-19T11:54:24.988Z,1.30
2023-10-19T11:56:54.374Z,1.67
2023-10-19T11:59:23.035Z,2.05
2023-10-19T12:01:51.408Z,1.70
2023-10-19T12:04:21.561Z,1.75
2023-10-19T12:06:50.029Z,1.35
2023-10-19T12:09:18.821Z,1.88
2023-10-19T12:11:48.722Z,3.33
2023-10-19T12:14:17.738Z,4.00
2023-10-19T12:16:46.667Z,2.72
2023-10-19T12:24:16.535Z,2.10
2023-10-19T12:26:46.197Z,1.98
2023-10-19T12:29:17.965Z,1.73
2023-10-19T12:31:51.282Z,1.90
2023-10-19T12:34:20.119Z,2.40
2023-10-19T12:36:53.331Z,1.15
2023-10-19T12:39:36.186Z,1.30
2023-10-19T12:42:05.418Z,1.45
2023-10-19T12:44:40.608Z,1.15
2023-10-19T12:47:12.095Z,2.08
2023-10-19T12:49:43.346Z,1.80
2023-10-19T12:52:16.018Z,2.15
2023-10-19T12:54:46.760Z,2.20
2023-10-19T12:57:16.200Z,2.60
2023-10-19T12:59:45.373Z,2.65
2023-10-19T13:02:16.354Z,1.70
2023-10-19T13:04:47.883Z,1.27
2023-10-19T13:07:17.818Z,1.48
2023-10-19T13:09:46.573Z,1.65
2023-10-19T13:12:14.773Z,1.70
2023-10-19T13:14:45.214Z,2.00
2023-10-19T13:17:13.682Z,2.15
2023-10-19T13:19:42.318Z,2.17
2023-10-19T13:22:10.557Z,1.48
2023-10-19T13:24:43.381Z,1.83
2023-10-19T13:27:11.763Z,2.03
2023-10-19T13:29:43.219Z,2.45
2023-10-19T13:32:12.753Z,3.00
2023-10-19T13:34:42.588Z,2.55
2023-10-19T13:39:40.881Z,2.03
2023-10-19T13:42:10.445Z,2.30
2023-10-19T13:44:39.879Z,1.80
2023-10-19T13:47:10.300Z,2.00
2023-10-19T13:49:39.119Z,2.30
2023-10-19T13:52:10.123Z,2.17
2023-10-19T13:54:40.227Z,3.00
2023-10-19T13:57:08.418Z,2.47
2023-10-19T13:59:37.059Z,2.30
2023-10-19T14:02:05.341Z,2.13
2023-10-19T14:04:34.376Z,2.20
2023-10-19T14:07:02.655Z,2.27
2023-10-19T14:09:33.051Z,1.90
2023-10-19T14:12:05.451Z,1.63
2023-10-19T14:14:36.584Z,1.92
2023-10-19T14:17:06.915Z,2.00
2023-10-19T14:19:35.407Z,1.77
2023-10-19T14:22:03.914Z,2.17
2023-10-19T14:24:35.528Z,2.15
2023-10-19T14:27:05.365Z,2.33
2023-10-19T14:29:34.028Z,2.50
2023-10-19T14:32:17.696Z,1.90
2023-10-19T14:34:49.745Z,2.58
2023-10-19T14:37:21.524Z,2.30
2023-10-19T14:39:49.989Z,2.45
2023-10-19T14:42:19.665Z,2.72
2023-10-19T14:44:48.461Z,2.40
2023-10-19T14:47:16.690Z,2.60
2023-10-19T14:49:45.320Z,2.50
2023-10-19T14:52:13.695Z,2.88
2023-10-19T14:54:42.294Z,2.67
2023-10-19T14:57:10.504Z,3.70
2023-10-19T14:59:40.623Z,2.70
2023-10-19T15:02:13.572Z,3.30
2023-10-19T15:04:42.398Z,3.63
2023-10-19T15:07:10.702Z,2.75
2023-10-19T15:09:39.439Z,2.50
2023-10-19T15:12:09.586Z,3.10
2023-10-19T15:14:44.545Z,3.38
2023-10-19T15:17:12.957Z,2.50
2023-10-19T15:19:41.550Z,2.30
2023-10-19T15:22:10.000Z,1.85
2023-10-19T15:24:38.488Z,1.90
2023-10-19T15:27:06.698Z,2.38
2023-10-19T15:29:35.430Z,2.13
2023-10-19T15:32:05.843Z,3.58
2023-10-19T15:34:35.750Z,3.75
2023-10-19T15:37:04.200Z,8.52
2023-10-19T15:39:33.044Z,7.68
2023-10-19T15:42:04.197Z,5.57
2023-10-19T15:44:32.902Z,3.58
2023-10-19T15:47:01.709Z,2.47
2023-10-19T15:49:32.069Z,2.38
2023-10-19T15:52:00.271Z,2.70
2023-10-19T15:54:28.777Z,2.90
2023-10-19T15:56:57.082Z,2.95
2023-10-19T15:59:25.579Z,2.85
2023-10-19T16:01:53.885Z,5.30
2023-10-19T16:04:23.593Z,2.53
2023-10-19T16:09:22.553Z,2.00
2023-10-19T16:11:52.119Z,2.90
2023-10-19T16:14:21.429Z,6.85
2023-10-19T16:16:49.888Z,4.30
2023-10-19T16:19:18.577Z,3.58
2023-10-19T16:21:47.352Z,2.40
2023-10-19T16:24:17.296Z,2.05
2023-10-19T16:26:45.881Z,1.92
2023-10-19T16:29:17.309Z,2.85
2023-10-19T16:31:47.053Z,2.15
2023-10-19T16:34:17.216Z,2.33
2023-10-19T16:36:45.548Z,2.13
2023-10-19T16:39:17.339Z,1.85
2023-10-19T16:41:47.766Z,2.42
2023-10-19T16:44:16.262Z,2.15
2023-10-19T16:46:47.199Z,2.40
2023-10-19T16:49:16.356Z,2.20
2023-10-19T16:51:44.693Z,1.75
2023-10-19T16:54:13.362Z,1.80
2023-10-19T16:56:47.606Z,2.08
2023-10-19T16:59:18.552Z,2.83
2023-10-19T17:01:46.990Z,3.20
2023-10-19T17:04:15.943Z,1.85
2023-10-19T17:06:44.363Z,2.40
2023-10-19T17:09:19.640Z,2.50
2023-10-19T17:11:48.459Z,2.92
2023-10-19T17:14:18.635Z,2.83
2023-10-19T17:16:47.215Z,2.22
2023-10-19T17:19:16.612Z,2.35
2023-10-19T17:21:45.107Z,2.10
2023-10-19T17:24:13.874Z,2.63
2023-10-19T17:26:43.072Z,2.78
2023-10-19T17:31:41.142Z,2.90
2023-10-19T17:34:09.780Z,2.15
2023-10-19T17:36:38.059Z,2.30
2023-10-19T17:39:13.271Z,2.13
2023-10-19T17:41:43.438Z,2.35
2023-10-19T17:44:12.119Z,2.00
2023-10-19T17:46:42.746Z,2.80
2023-10-19T17:49:12.166Z,2.00
2023-10-19T17:51:40.784Z,2.55
2023-10-19T17:54:11.026Z,1.95
2023-10-19T17:56:39.404Z,2.38
2023-10-19T17:59:09.192Z,2.10
2023-10-19T18:01:37.848Z,2.35
2023-10-19T18:04:09.323Z,2.60
2023-10-19T18:06:37.865Z,2.00
2023-10-19T18:09:09.430Z,2.03
2023-10-19T18:11:38.367Z,1.90
2023-10-19T18:14:09.251Z,2.22
2023-10-19T18:16:37.565Z,2.10
2023-10-19T18:19:09.339Z,2.37
2023-10-19T18:21:38.099Z,1.92
2023-10-19T18:24:09.476Z,3.00
2023-10-19T18:26:38.870Z,2.47
2023-10-19T18:29:08.719Z,2.35
2023-10-19T18:31:37.311Z,2.08
2023-10-19T18:34:08.192Z,2.22
2023-10-19T18:36:36.617Z,2.22
2023-10-19T18:39:05.531Z,1.42
2023-10-19T18:41:34.045Z,2.03
2023-10-19T18:44:04.428Z,2.03
2023-10-19T18:46:32.854Z,2.05
2023-10-19T18:49:01.457Z,1.98
2023-10-19T18:51:31.234Z,2.10
2023-10-19T18:54:00.161Z,2.42
2023-10-19T18:56:28.828Z,1.50
2023-10-19T18:58:57.518Z,2.83
2023-10-19T19:01:26.125Z,2.15
2023-10-19T19:03:54.606Z,2.25
2023-10-19T19:06:23.221Z,1.85
2023-10-19T19:08:56.142Z,1.55
2023-10-19T19:11:24.676Z,1.67
2023-10-19T19:13:53.481Z,1.65
2023-10-19T19:16:22.432Z,1.73
2023-10-19T19:18:52.306Z,1.92
2023-10-19T19:21:24.389Z,1.83
2023-10-19T19:23:54.611Z,2.38
2023-10-19T19:26:23.157Z,2.30
2023-10-19T19:28:53.157Z,2.13
2023-10-19T19:31:22.787Z,1.73
2023-10-19T19:33:52.215Z,2.00
2023-10-19T19:36:20.999Z,1.85
2023-10-19T19:38:50.175Z,1.50
2023-10-19T19:41:19.860Z,2.03
2023-10-19T19:43:48.504Z,2.00
2023-10-19T19:46:19.190Z,2.58
2023-10-19T19:48:49.508Z,2.45
2023-10-19T19:51:19.143Z,2.78
2023-10-19T19:53:48.180Z,2.13
2023-10-19T19:56:16.567Z,2.00
2023-10-19T19:58:46.858Z,2.50
2023-10-19T20:01:15.253Z,1.75
2023-10-19T20:03:44.923Z,1.92
2023-10-19T20:08:44.674Z,2.00
2023-10-19T20:11:20.488Z,1.90
2023-10-19T20:13:50.685Z,1.75
2023-10-19T20:16:19.105Z,2.38
2023-10-19T20:18:47.835Z,3.05
2023-10-19T20:21:17.999Z,2.20
2023-10-19T20:23:49.445Z,2.55
2023-10-19T20:26:18.012Z,2.17
2023-10-19T20:28:46.609Z,2.63
2023-10-19T20:31:16.358Z,2.13
2023-10-19T20:33:45.516Z,2.38
2023-10-19T20:36:14.798Z,2.15
2023-10-19T20:38:45.868Z,2.50
2023-10-19T20:41:14.282Z,2.25
2023-10-19T20:43:45.118Z,2.25
2023-10-19T20:46:13.585Z,2.30
2023-10-19T20:48:45.257Z,2.25
2023-10-19T20:51:17.373Z,2.70
2023-10-19T20:53:45.955Z,2.78
2023-10-19T20:56:14.370Z,2.38
2023-10-19T20:58:43.163Z,2.22
2023-10-19T21:01:13.675Z,2.78
2023-10-19T21:03:43.960Z,2.45
2023-10-19T21:06:13.456Z,2.40
2023-10-19T21:08:42.810Z,3.00
2023-10-19T21:11:18.586Z,2.50
2023-10-19T21:13:47.787Z,2.55
2023-10-19T21:16:16.940Z,3.38
2023-10-19T21:18:46.939Z,3.08
2023-10-19T21:21:15.465Z,2.78
2023-10-19T21:23:44.258Z,3.20
2023-10-19T21:26:12.951Z,3.90
2023-10-19T21:28:41.860Z,4.22
2023-10-19T21:31:11.380Z,3.27
2023-10-19T21:33:40.228Z,3.90
2023-10-19T21:36:09.848Z,3.35
2023-10-19T21:38:39.336Z,3.70
2023-10-19T21:41:07.698Z,3.83
2023-10-19T21:43:37.278Z,3.13
2023-10-19T21:46:05.646Z,3.63
2023-10-19T21:48:34.318Z,3.25
2023-10-19T21:51:02.565Z,2.97
2023-10-19T21:53:32.602Z,3.57
2023-10-19T21:56:00.951Z,4.63
2023-10-19T21:58:29.878Z,4.60
2023-10-19T22:01:01.884Z,4.72
2023-10-19T22:03:30.935Z,4.65
2023-10-19T22:05:59.799Z,4.88
2023-10-19T22:08:33.065Z,4.43
2023-10-19T22:11:01.808Z,3.90
2023-10-19T22:13:32.004Z,4.00
2023-10-19T22:16:01.049Z,4.00
2023-10-19T22:18:29.877Z,3.80
2023-10-19T22:21:01.501Z,3.92
2023-10-19T22:23:30.394Z,3.28
2023-10-19T22:26:00.224Z,3.10
2023-10-19T22:28:29.014Z,3.78
2023-10-19T22:30:57.425Z,3.83
2023-10-19T22:33:26.091Z,3.65
2023-10-19T22:35:55.646Z,4.10
2023-10-19T22:38:24.276Z,3.63
2023-10-19T22:40:52.910Z,3.63
2023-10-19T22:43:23.803Z,3.80
2023-10-19T22:45:55.357Z,3.63
2023-10-19T22:48:24.137Z,3.05
2023-10-19T22:50:52.388Z,3.60
2023-10-19T22:53:20.926Z,2.90
2023-10-19T22:55:49.284Z,3.58
2023-10-19T22:58:18.185Z,3.30
2023-10-19T23:00:48.131Z,3.78
2023-10-19T23:03:19.082Z,3.72
2023-10-19T23:05:47.923Z,3.50
2023-10-19T23:08:16.585Z,3.63
2023-10-19T23:10:46.554Z,4.22
2023-10-19T23:13:18.367Z,3.72
2023-10-19T23:15:49.531Z,3.20
2023-10-19T23:18:18.403Z,3.35
2023-10-19T23:20:53.559Z,3.50
2023-10-19T23:23:23.222Z,2.78
2023-10-19T23:25:55.827Z,2.92
2023-10-19T23:28:27.244Z,2.70
2023-10-19T23:31:02.769Z,3.05
2023-10-19T23:33:31.351Z,2.72
2023-10-19T23:35:59.644Z,3.13
2023-10-19T23:38:28.229Z,3.15
2023-10-19T23:40:57.023Z,2.80
2023-10-19T23:43:27.142Z,3.25
2023-10-19T23:45:57.074Z,2.97
2023-10-19T23:48:26.672Z,3.25
2023-10-19T23:50:55.213Z,3.20
2023-10-19T23:53:23.700Z,2.90
2023-10-19T23:55:52.688Z,3.88
2023-10-19T23:58:21.235Z,3.08
